sensor_id;sensor_type;location;lat;lon;timestamp;P1;durP1;ratioP1;P2;durP2;ratioP2
46116;SDS011;32591;48.102;11.772;2022-12-05T00:05:10;15.68;;;6.32;;
46116;SDS011;32591;48.102;11.772;2022-12-05T00:07:37;14.05;;;6.90;;
46116;SDS011;32591;48.102;11.772;2022-12-05T00:10:05;13.80;;;6.38;;
46116;SDS011;32591;48.102;11.772;2022-12-05T00:12:34;12.48;;;5.97;;
46116;SDS011;32591;48.102;11.772;2022-12-05T00:15:01;12.23;;;6.35;;
46116;SDS011;32591;48.102;11.772;2022-12-05T00:17:30;11.10;;;5.82;;
46116;SDS011;32591;48.102;11.772;2022-12-05T00:19:57;11.73;;;5.72;;
46116;SDS011;32591;48.102;11.772;2022-12-05T00:22:24;13.10;;;6.00;;
46116;SDS011;32591;48.102;11.772;2022-12-05T00:24:51;10.05;;;6.65;;
46116;SDS011;32591;48.102;11.772;2022-12-05T00:27:18;12.73;;;7.20;;
46116;SDS011;32591;48.102;11.772;2022-12-05T00:32:13;12.52;;;5.75;;
46116;SDS011;32591;48.102;11.772;2022-12-05T00:37:07;15.45;;;7.22;;
46116;SDS011;32591;48.102;11.772;2022-12-05T00:42:01;14.55;;;6.75;;
46116;SDS011;32591;48.102;11.772;2022-12-05T00:44:28;12.75;;;5.93;;
46116;SDS011;32591;48.102;11.772;2022-12-05T00:46:57;13.80;;;5.97;;
46116;SDS011;32591;48.102;11.772;2022-12-05T00:49:24;12.48;;;6.57;;
46116;SDS011;32591;48.102;11.772;2022-12-05T00:51:51;13.75;;;6.82;;
46116;SDS011;32591;48.102;11.772;2022-12-05T00:54:18;12.75;;;6.07;;
46116;SDS011;32591;48.102;11.772;2022-12-05T00:59:13;12.45;;;6.50;;
46116;SDS011;32591;48.102;11.772;2022-12-05T01:01:43;12.35;;;6.22;;
46116;SDS011;32591;48.102;11.772;2022-12-05T01:04:14;14.75;;;7.18;;
46116;SDS011;32591;48.102;11.772;2022-12-05T01:06:43;12.75;;;6.30;;
46116;SDS011;32591;48.102;11.772;2022-12-05T01:09:11;14.35;;;6.40;;
46116;SDS011;32591;48.102;11.772;2022-12-05T01:11:40;14.65;;;6.55;;
46116;SDS011;32591;48.102;11.772;2022-12-05T01:14:08;11.25;;;6.55;;
46116;SDS011;32591;48.102;11.772;2022-12-05T01:16:36;16.33;;;7.13;;
46116;SDS011;32591;48.102;11.772;2022-12-05T01:19:06;14.23;;;7.72;;
46116;SDS011;32591;48.102;11.772;2022-12-05T01:21:37;14.57;;;6.72;;
46116;SDS011;32591;48.102;11.772;2022-12-05T01:24:05;13.20;;;6.45;;
46116;SDS011;32591;48.102;11.772;2022-12-05T01:26:32;14.43;;;6.25;;
46116;SDS011;32591;48.102;11.772;2022-12-05T01:29:00;14.18;;;7.28;;
46116;SDS011;32591;48.102;11.772;2022-12-05T01:31:27;14.13;;;6.07;;
46116;SDS011;32591;48.102;11.772;2022-12-05T01:33:58;17.17;;;7.68;;
46116;SDS011;32591;48.102;11.772;2022-12-05T01:36:27;12.50;;;6.95;;
46116;SDS011;32591;48.102;11.772;2022-12-05T01:38:56;14.00;;;6.32;;
46116;SDS011;32591;48.102;11.772;2022-12-05T01:41:24;14.68;;;7.47;;
46116;SDS011;32591;48.102;11.772;2022-12-05T01:43:59;14.65;;;6.60;;
46116;SDS011;32591;48.102;11.772;2022-12-05T01:46:29;12.98;;;6.65;;
46116;SDS011;32591;48.102;11.772;2022-12-05T01:49:00;17.48;;;6.63;;
46116;SDS011;32591;48.102;11.772;2022-12-05T01:51:32;13.57;;;6.53;;
46116;SDS011;32591;48.102;11.772;2022-12-05T01:54:01;14.82;;;7.03;;
46116;SDS011;32591;48.102;11.772;2022-12-05T01:56:29;14.68;;;7.03;;
46116;SDS011;32591;48.102;11.772;2022-12-05T01:58:58;14.80;;;7.05;;
46116;SDS011;32591;48.102;11.772;2022-12-05T02:01:26;13.05;;;6.63;;
46116;SDS011;32591;48.102;11.772;2022-12-05T02:03:54;19.40;;;8.10;;
46116;SDS011;32591;48.102;11.772;2022-12-05T02:06:23;16.67;;;8.40;;
46116;SDS011;32591;48.102;11.772;2022-12-05T02:08:52;19.27;;;7.85;;
46116;SDS011;32591;48.102;11.772;2022-12-05T02:11:21;14.43;;;6.82;;
46116;SDS011;32591;48.102;11.772;2022-12-05T02:14:03;14.82;;;6.90;;
46116;SDS011;32591;48.102;11.772;2022-12-05T02:16:46;12.82;;;6.05;;
46116;SDS011;32591;48.102;11.772;2022-12-05T02:22:21;15.40;;;6.00;;
46116;SDS011;32591;48.102;11.772;2022-12-05T02:25:16;18.45;;;7.10;;
46116;SDS011;32591;48.102;11.772;2022-12-05T02:28:12;15.00;;;7.72;;
46116;SDS011;32591;48.102;11.772;2022-12-05T02:31:00;13.18;;;7.18;;
46116;SDS011;32591;48.102;11.772;2022-12-05T02:33:34;16.80;;;7.07;;
46116;SDS011;32591;48.102;11.772;2022-12-05T02:36:07;12.18;;;6.20;;
46116;SDS011;32591;48.102;11.772;2022-12-05T02:38:42;20.38;;;7.70;;
46116;SDS011;32591;48.102;11.772;2022-12-05T02:41:17;18.20;;;9.13;;
46116;SDS011;32591;48.102;11.772;2022-12-05T02:43:48;19.98;;;7.97;;
46116;SDS011;32591;48.102;11.772;2022-12-05T02:46:21;12.95;;;7.22;;
46116;SDS011;32591;48.102;11.772;2022-12-05T02:48:50;16.65;;;7.65;;
46116;SDS011;32591;48.102;11.772;2022-12-05T02:51:23;18.02;;;7.90;;
46116;SDS011;32591;48.102;11.772;2022-12-05T02:53:55;20.58;;;8.13;;
46116;SDS011;32591;48.102;11.772;2022-12-05T02:56:28;16.95;;;7.63;;
46116;SDS011;32591;48.102;11.772;2022-12-05T02:58:58;20.40;;;8.40;;
46116;SDS011;32591;48.102;11.772;2022-12-05T03:01:27;20.95;;;7.90;;
46116;SDS011;32591;48.102;11.772;2022-12-05T03:03:57;17.20;;;8.18;;
46116;SDS011;32591;48.102;11.772;2022-12-05T03:06:29;17.95;;;8.63;;
46116;SDS011;32591;48.102;11.772;2022-12-05T03:09:00;19.48;;;8.45;;
46116;SDS011;32591;48.102;11.772;2022-12-05T03:11:32;19.45;;;8.15;;
46116;SDS011;32591;48.102;11.772;2022-12-05T03:14:04;19.05;;;8.93;;
46116;SDS011;32591;48.102;11.772;2022-12-05T03:16:40;21.13;;;8.70;;
46116;SDS011;32591;48.102;11.772;2022-12-05T03:19:13;21.23;;;9.60;;
46116;SDS011;32591;48.102;11.772;2022-12-05T03:21:48;23.63;;;9.73;;
46116;SDS011;32591;48.102;11.772;2022-12-05T03:24:20;24.38;;;9.57;;
46116;SDS011;32591;48.102;11.772;2022-12-05T03:26:49;21.60;;;9.10;;
46116;SDS011;32591;48.102;11.772;2022-12-05T03:29:28;19.85;;;8.07;;
46116;SDS011;32591;48.102;11.772;2022-12-05T03:32:04;22.70;;;9.02;;
46116;SDS011;32591;48.102;11.772;2022-12-05T03:34:38;28.63;;;11.02;;
46116;SDS011;32591;48.102;11.772;2022-12-05T03:37:14;21.30;;;9.38;;
46116;SDS011;32591;48.102;11.772;2022-12-05T03:39:48;22.27;;;9.60;;
46116;SDS011;32591;48.102;11.772;2022-12-05T03:42:30;22.80;;;9.73;;
46116;SDS011;32591;48.102;11.772;2022-12-05T03:45:02;29.15;;;10.77;;
46116;SDS011;32591;48.102;11.772;2022-12-05T03:47:37;22.73;;;8.88;;
46116;SDS011;32591;48.102;11.772;2022-12-05T03:50:11;24.33;;;11.35;;
46116;SDS011;32591;48.102;11.772;2022-12-05T03:52:45;24.42;;;9.48;;
46116;SDS011;32591;48.102;11.772;2022-12-05T03:55:18;24.42;;;10.63;;
46116;SDS011;32591;48.102;11.772;2022-12-05T03:57:47;23.13;;;9.75;;
46116;SDS011;32591;48.102;11.772;2022-12-05T04:00:20;24.88;;;9.75;;
46116;SDS011;32591;48.102;11.772;2022-12-05T04:02:51;21.58;;;9.45;;
46116;SDS011;32591;48.102;11.772;2022-12-05T04:05:21;23.30;;;9.32;;
46116;SDS011;32591;48.102;11.772;2022-12-05T04:07:53;25.48;;;9.88;;
46116;SDS011;32591;48.102;11.772;2022-12-05T04:10:26;23.35;;;9.50;;
46116;SDS011;32591;48.102;11.772;2022-12-05T04:12:57;21.25;;;10.55;;
46116;SDS011;32591;48.102;11.772;2022-12-05T04:15:41;21.85;;;9.93;;
46116;SDS011;32591;48.102;11.772;2022-12-05T04:18:33;28.95;;;9.77;;
46116;SDS011;32591;48.102;11.772;2022-12-05T04:21:02;21.27;;;9.48;;
46116;SDS011;32591;48.102;11.772;2022-12-05T04:23:48;28.27;;;10.68;;
46116;SDS011;32591;48.102;11.772;2022-12-05T04:26:39;24.20;;;10.15;;
46116;SDS011;32591;48.102;11.772;2022-12-05T04:29:13;25.92;;;9.90;;
46116;SDS011;32591;48.102;11.772;2022-12-05T04:31:51;21.33;;;9.80;;
46116;SDS011;32591;48.102;11.772;2022-12-05T04:34:24;21.85;;;9.45;;
46116;SDS011;32591;48.102;11.772;2022-12-05T04:36:54;25.75;;;10.07;;
46116;SDS011;32591;48.102;11.772;2022-12-05T04:39:26;26.55;;;10.27;;
46116;SDS011;32591;48.102;11.772;2022-12-05T04:42:00;23.90;;;10.30;;
46116;SDS011;32591;48.102;11.772;2022-12-05T04:44:31;22.15;;;9.20;;
46116;SDS011;32591;48.102;11.772;2022-12-05T04:47:03;25.25;;;10.65;;
46116;SDS011;32591;48.102;11.772;2022-12-05T04:49:35;25.52;;;9.90;;
46116;SDS011;32591;48.102;11.772;2022-12-05T04:52:04;24.90;;;9.50;;
46116;SDS011;32591;48.102;11.772;2022-12-05T04:54:35;25.15;;;9.45;;
46116;SDS011;32591;48.102;11.772;2022-12-05T04:57:09;20.98;;;8.50;;
46116;SDS011;32591;48.102;11.772;2022-12-05T04:59:42;24.63;;;9.52;;
46116;SDS011;32591;48.102;11.772;2022-12-05T05:02:11;18.83;;;8.90;;
46116;SDS011;32591;48.102;11.772;2022-12-05T05:04:42;25.05;;;9.40;;
46116;SDS011;32591;48.102;11.772;2022-12-05T05:07:13;21.70;;;9.45;;
46116;SDS011;32591;48.102;11.772;2022-12-05T05:09:40;23.30;;;9.38;;
46116;SDS011;32591;48.102;11.772;2022-12-05T05:12:08;22.73;;;8.98;;
46116;SDS011;32591;48.102;11.772;2022-12-05T05:14:35;17.63;;;7.57;;
